sensor_id;sensor_type;location;lat;lon;timestamp;pressure;altitude;pressure_sealevel;temperature;humidity
81641;BME280;71053;50.722;-1.944;2023-07-22T00:00:05;101090.99;;;15.73;70.20
81641;BME280;71053;50.722;-1.944;2023-07-22T00:02:29;101092.36;;;15.57;71.08
81641;BME280;71053;50.722;-1.944;2023-07-22T00:04:54;101088.26;;;15.62;70.59
81641;BME280;71053;50.722;-1.944;2023-07-22T00:07:19;101088.36;;;15.56;70.84
81641;BME280;71053;50.722;-1.944;2023-07-22T00:09:45;101088.47;;;15.56;70.94
81641;BME280;71053;50.722;-1.944;2023-07-22T00:12:10;101089.22;;;15.49;71.22
81641;BME280;71053;50.722;-1.944;2023-07-22T00:14:40;101088.70;;;15.39;71.42
81641;BME280;71053;50.722;-1.944;2023-07-22T00:17:01;101087.57;;;15.31;72.02
81641;BME280;71053;50.722;-1.944;2023-07-22T00:19:26;101084.68;;;15.37;71.82
81641;BME280;71053;50.722;-1.944;2023-07-22T00:21:51;101084.38;;;15.36;71.96
81641;BME280;71053;50.722;-1.944;2023-07-22T00:24:16;101082.65;;;15.53;71.09
81641;BME280;71053;50.722;-1.944;2023-07-22T00:26:42;101082.23;;;15.51;71.19
81641;BME280;71053;50.722;-1.944;2023-07-22T00:29:07;101082.40;;;15.50;71.02
81641;BME280;71053;50.722;-1.944;2023-07-22T00:31:32;101080.61;;;15.47;71.19
81641;BME280;71053;50.722;-1.944;2023-07-22T00:33:58;101078.75;;;15.47;71.26
81641;BME280;71053;50.722;-1.944;2023-07-22T00:36:23;101075.93;;;15.43;71.29
81641;BME280;71053;50.722;-1.944;2023-07-22T00:38:48;101077.87;;;15.37;71.62
81641;BME280;71053;50.722;-1.944;2023-07-22T00:41:14;101075.16;;;15.42;71.48
81641;BME280;71053;50.722;-1.944;2023-07-22T00:43:39;101074.29;;;15.19;72.64
81641;BME280;71053;50.722;-1.944;2023-07-22T00:46:04;101073.20;;;15.40;71.65
81641;BME280;71053;50.722;-1.944;2023-07-22T00:48:31;101070.87;;;15.32;72.15
81641;BME280;71053;50.722;-1.944;2023-07-22T00:50:55;101064.68;;;15.40;71.71
81641;BME280;71053;50.722;-1.944;2023-07-22T00:53:21;101065.01;;;15.34;71.84
81641;BME280;71053;50.722;-1.944;2023-07-22T00:55:46;101064.23;;;15.43;71.43
81641;BME280;71053;50.722;-1.944;2023-07-22T00:58:11;101066.62;;;15.18;72.60
81641;BME280;71053;50.722;-1.944;2023-07-22T01:00:36;101062.39;;;15.33;72.73
81641;BME280;71053;50.722;-1.944;2023-07-22T01:03:02;101059.30;;;15.02;73.18
81641;BME280;71053;50.722;-1.944;2023-07-22T01:05:27;101058.04;;;15.07;73.30
81641;BME280;71053;50.722;-1.944;2023-07-22T01:07:52;101058.53;;;15.21;72.40
81641;BME280;71053;50.722;-1.944;2023-07-22T01:10:18;101058.02;;;15.29;72.06
81641;BME280;71053;50.722;-1.944;2023-07-22T01:12:43;101051.04;;;15.59;70.98
81641;BME280;71053;50.722;-1.944;2023-07-22T01:15:09;101052.50;;;15.47;71.01
81641;BME280;71053;50.722;-1.944;2023-07-22T01:17:34;101048.61;;;15.44;71.23
81641;BME280;71053;50.722;-1.944;2023-07-22T01:19:59;101046.66;;;15.20;72.10
81641;BME280;71053;50.722;-1.944;2023-07-22T01:22:24;101045.97;;;15.05;73.12
81641;BME280;71053;50.722;-1.944;2023-07-22T01:24:50;101044.63;;;15.04;73.49
81641;BME280;71053;50.722;-1.944;2023-07-22T01:27:15;101040.61;;;15.20;72.62
81641;BME280;71053;50.722;-1.944;2023-07-22T01:29:40;101038.99;;;15.34;72.74
81641;BME280;71053;50.722;-1.944;2023-07-22T01:32:06;101036.92;;;15.25;72.79
81641;BME280;71053;50.722;-1.944;2023-07-22T01:34:31;101035.71;;;15.43;72.12
81641;BME280;71053;50.722;-1.944;2023-07-22T01:36:56;101035.25;;;15.25;72.90
81641;BME280;71053;50.722;-1.944;2023-07-22T01:39:21;101030.70;;;15.42;72.44
81641;BME280;71053;50.722;-1.944;2023-07-22T01:41:46;101026.72;;;15.42;72.61
81641;BME280;71053;50.722;-1.944;2023-07-22T01:44:12;101029.30;;;15.20;73.79
81641;BME280;71053;50.722;-1.944;2023-07-22T01:46:37;101026.22;;;15.35;73.26
81641;BME280;71053;50.722;-1.944;2023-07-22T01:49:06;101019.98;;;15.57;72.41
81641;BME280;71053;50.722;-1.944;2023-07-22T01:51:28;101017.70;;;15.62;72.20
81641;BME280;71053;50.722;-1.944;2023-07-22T01:53:53;101017.02;;;15.60;72.46
81641;BME280;71053;50.722;-1.944;2023-07-22T01:56:18;101013.12;;;15.66;72.59
81641;BME280;71053;50.722;-1.944;2023-07-22T01:58:43;101004.34;;;15.76;72.23
81641;BME280;71053;50.722;-1.944;2023-07-22T02:01:09;101007.08;;;15.91;71.82
81641;BME280;71053;50.722;-1.944;2023-07-22T02:03:34;101006.35;;;15.80;72.52
81641;BME280;71053;50.722;-1.944;2023-07-22T02:06:02;101002.75;;;15.99;71.60
81641;BME280;71053;50.722;-1.944;2023-07-22T02:08:25;100999.58;;;15.74;72.88
81641;BME280;71053;50.722;-1.944;2023-07-22T02:10:50;100993.16;;;15.78;72.94
81641;BME280;71053;50.722;-1.944;2023-07-22T02:13:16;100992.97;;;15.57;74.31
81641;BME280;71053;50.722;-1.944;2023-07-22T02:15:41;100991.85;;;15.75;73.43
81641;BME280;71053;50.722;-1.944;2023-07-22T02:18:06;100987.69;;;15.45;74.86
81641;BME280;71053;50.722;-1.944;2023-07-22T02:20:31;100984.63;;;15.67;74.31
81641;BME280;71053;50.722;-1.944;2023-07-22T02:22:57;100984.76;;;15.80;74.09
81641;BME280;71053;50.722;-1.944;2023-07-22T02:25:22;100983.51;;;15.71;73.95
81641;BME280;71053;50.722;-1.944;2023-07-22T02:27:47;100981.45;;;15.73;74.53
81641;BME280;71053;50.722;-1.944;2023-07-22T02:30:13;100978.81;;;15.78;74.34
81641;BME280;71053;50.722;-1.944;2023-07-22T02:32:39;100979.01;;;15.94;73.52
81641;BME280;71053;50.722;-1.944;2023-07-22T02:35:04;100980.39;;;15.99;72.94
81641;BME280;71053;50.722;-1.944;2023-07-22T02:37:28;100978.73;;;15.93;73.39
81641;BME280;71053;50.722;-1.944;2023-07-22T02:39:54;100978.02;;;16.01;73.02
81641;BME280;71053;50.722;-1.944;2023-07-22T02:42:19;100973.94;;;16.08;73.29
81641;BME280;71053;50.722;-1.944;2023-07-22T02:44:44;100971.05;;;16.15;72.69
81641;BME280;71053;50.722;-1.944;2023-07-22T02:47:09;100966.22;;;16.20;72.42
81641;BME280;71053;50.722;-1.944;2023-07-22T02:49:35;100961.59;;;16.11;73.00
81641;BME280;71053;50.722;-1.944;2023-07-22T02:52:00;100956.12;;;16.35;72.13
81641;BME280;71053;50.722;-1.944;2023-07-22T02:54:25;100961.30;;;16.10;73.45
81641;BME280;71053;50.722;-1.944;2023-07-22T02:56:50;100958.22;;;16.22;72.37
81641;BME280;71053;50.722;-1.944;2023-07-22T02:59:16;100956.58;;;16.28;73.22
81641;BME280;71053;50.722;-1.944;2023-07-22T03:01:41;100958.87;;;16.15;73.11
81641;BME280;71053;50.722;-1.944;2023-07-22T03:04:06;100954.58;;;16.17;73.05
81641;BME280;71053;50.722;-1.944;2023-07-22T03:06:31;100958.33;;;16.11;73.55
81641;BME280;71053;50.722;-1.944;2023-07-22T03:08:57;100954.77;;;16.15;73.16
81641;BME280;71053;50.722;-1.944;2023-07-22T03:11:22;100951.70;;;16.22;73.50
81641;BME280;71053;50.722;-1.944;2023-07-22T03:13:47;100955.83;;;15.82;74.64
81641;BME280;71053;50.722;-1.944;2023-07-22T03:16:12;100956.03;;;15.77;75.01
81641;BME280;71053;50.722;-1.944;2023-07-22T03:18:38;100954.67;;;15.72;75.90
81641;BME280;71053;50.722;-1.944;2023-07-22T03:21:03;100958.74;;;15.79;75.13
81641;BME280;71053;50.722;-1.944;2023-07-22T03:23:28;100959.72;;;15.67;76.39
81641;BME280;71053;50.722;-1.944;2023-07-22T03:25:53;100956.90;;;15.61;76.28
81641;BME280;71053;50.722;-1.944;2023-07-22T03:28:19;100951.98;;;15.71;76.09
81641;BME280;71053;50.722;-1.944;2023-07-22T03:30:44;100949.19;;;15.88;75.40
81641;BME280;71053;50.722;-1.944;2023-07-22T03:33:09;100948.02;;;15.80;75.81
81641;BME280;71053;50.722;-1.944;2023-07-22T03:35:34;100950.70;;;15.80;76.84
81641;BME280;71053;50.722;-1.944;2023-07-22T03:38:00;100952.92;;;15.71;76.59
81641;BME280;71053;50.722;-1.944;2023-07-22T03:40:25;100954.72;;;15.66;76.49
81641;BME280;71053;50.722;-1.944;2023-07-22T03:42:51;100952.32;;;15.51;77.55
81641;BME280;71053;50.722;-1.944;2023-07-22T03:45:16;100951.57;;;15.46;78.18
81641;BME280;71053;50.722;-1.944;2023-07-22T03:47:41;100951.95;;;15.60;77.56
81641;BME280;71053;50.722;-1.944;2023-07-22T03:50:07;100947.89;;;15.67;77.16
81641;BME280;71053;50.722;-1.944;2023-07-22T03:52:32;100946.21;;;15.35;78.62
81641;BME280;71053;50.722;-1.944;2023-07-22T03:54:57;100943.13;;;15.45;78.50
81641;BME280;71053;50.722;-1.944;2023-07-22T03:57:25;100941.95;;;15.51;78.00
81641;BME280;71053;50.722;-1.944;2023-07-22T03:59:47;100938.69;;;15.55;78.23
81641;BME280;71053;50.722;-1.944;2023-07-22T04:02:12;100938.00;;;15.39;79.11
81641;BME280;71053;50.722;-1.944;2023-07-22T04:04:38;100937.31;;;15.38;78.93
81641;BME280;71053;50.722;-1.944;2023-07-22T04:07:03;100935.31;;;15.41;79.19
81641;BME280;71053;50.722;-1.944;2023-07-22T04:09:28;100935.88;;;15.44;79.15
81641;BME280;71053;50.722;-1.944;2023-07-22T04:11:54;100937.36;;;15.52;78.87
81641;BME280;71053;50.722;-1.944;2023-07-22T04:14:19;100935.30;;;15.51;78.78
81641;BME280;71053;50.722;-1.944;2023-07-22T04:16:44;100935.73;;;15.46;79.29
81641;BME280;71053;50.722;-1.944;2023-07-22T04:19:10;100934.26;;;15.37;79.94
81641;BME280;71053;50.722;-1.944;2023-07-22T04:21:35;100931.91;;;15.42;79.84
81641;BME280;71053;50.722;-1.944;2023-07-22T04:24:00;100930.48;;;15.73;78.71
81641;BME280;71053;50.722;-1.944;2023-07-22T04:26:25;100927.82;;;15.59;79.20
81641;BME280;71053;50.722;-1.944;2023-07-22T04:28:50;100928.38;;;15.73;78.75
81641;BME280;71053;50.722;-1.944;2023-07-22T04:31:16;100930.61;;;15.59;79.81
81641;BME280;71053;50.722;-1.944;2023-07-22T04:33:41;100929.25;;;15.46;80.20
81641;BME280;71053;50.722;-1.944;2023-07-22T04:36:06;100931.65;;;15.45;80.71
81641;BME280;71053;50.722;-1.944;2023-07-22T04:38:32;100931.09;;;15.52;80.69
81641;BME280;71053;50.722;-1.944;2023-07-22T04:40:57;100928.62;;;15.64;79.58
81641;BME280;71053;50.722;-1.944;2023-07-22T04:43:23;100925.80;;;15.70;79.43
81641;BME280;71053;50.722;-1.944;2023-07-22T04:45:48;100919.47;;;15.78;79.20
81641;BME280;71053;50.722;-1.944;2023-07-22T04:48:14;100917.72;;;15.69;79.70
81641;BME280;71053;50.722;-1.944;2023-07-22T04:50:38;100917.95;;;15.65;79.99
81641;BME280;71053;50.722;-1.944;2023-07-22T04:53:04;100916.34;;;15.67;79.88
81641;BME280;71053;50.722;-1.944;2023-07-22T04:55:29;100913.74;;;15.74;79.64
81641;BME280;71053;50.722;-1.944;2023-07-22T04:57:54;100910.20;;;15.71;79.78
81641;BME280;71053;50.722;-1.944;2023-07-22T05:00:19;100909.91;;;15.77;79.73
81641;BME280;71053;50.722;-1.944;2023-07-22T05:02:46;100909.06;;;15.72;79.92
81641;BME280;71053;50.722;-1.944;2023-07-22T05:05:10;100907.92;;;15.61;80.54
81641;BME280;71053;50.722;-1.944;2023-07-22T05:07:35;100903.96;;;15.79;79.90
81641;BME280;71053;50.722;-1.944;2023-07-22T05:10:00;100898.93;;;15.88;79.73
81641;BME280;71053;50.722;-1.944;2023-07-22T05:12:26;100899.78;;;15.99;79.50
81641;BME280;71053;50.722;-1.944;2023-07-22T05:14:51;100894.91;;;15.93;79.71
81641;BME280;71053;50.722;-1.944;2023-07-22T05:17:16;100900.52;;;16.07;79.31
81641;BME280;71053;50.722;-1.944;2023-07-22T05:19:41;100903.40;;;16.17;78.96
81641;BME280;71053;50.722;-1.944;2023-07-22T05:22:07;100898.69;;;16.17;79.39
81641;BME280;71053;50.722;-1.944;2023-07-22T05:24:32;100897.26;;;16.35;78.63
81641;BME280;71053;50.722;-1.944;2023-07-22T05:26:57;100897.00;;;16.11;79.64
81641;BME280;71053;50.722;-1.944;2023-07-22T05:29:22;100892.99;;;16.35;78.77
81641;BME280;71053;50.722;-1.944;2023-07-22T05:31:48;100889.10;;;16.44;78.13
81641;BME280;71053;50.722;-1.944;2023-07-22T05:34:13;100882.90;;;16.39;78.93
81641;BME280;71053;50.722;-1.944;2023-07-22T05:36:38;100881.07;;;16.48;78.16
81641;BME280;71053;50.722;-1.944;2023-07-22T05:39:03;100883.40;;;16.56;78.26
81641;BME280;71053;50.722;-1.944;2023-07-22T05:41:28;100883.98;;;16.59;78.53
81641;BME280;71053;50.722;-1.944;2023-07-22T05:43:54;100882.15;;;16.74;78.08
81641;BME280;71053;50.722;-1.944;2023-07-22T05:46:19;100878.65;;;16.68;78.31
81641;BME280;71053;50.722;-1.944;2023-07-22T05:48:44;100875.26;;;16.79;77.96
81641;BME280;71053;50.722;-1.944;2023-07-22T05:51:10;100872.30;;;16.76;77.61
81641;BME280;71053;50.722;-1.944;2023-07-22T05:53:35;100872.99;;;16.45;80.01
81641;BME280;71053;50.722;-1.944;2023-07-22T05:56:00;100868.91;;;16.61;79.01
81641;BME280;71053;50.722;-1.944;2023-07-22T05:58:25;100868.56;;;16.79;78.78
81641;BME280;71053;50.722;-1.944;2023-07-22T06:00:53;100864.94;;;16.84;78.35
81641;BME280;71053;50.722;-1.944;2023-07-22T06:03:16;100865.71;;;16.82;78.37
81641;BME280;71053;50.722;-1.944;2023-07-22T06:05:41;100863.54;;;16.85;78.24
81641;BME280;71053;50.722;-1.944;2023-07-22T06:08:06;100862.56;;;16.84;78.46
81641;BME280;71053;50.722;-1.944;2023-07-22T06:10:31;100862.73;;;16.95;77.86
81641;BME280;71053;50.722;-1.944;2023-07-22T06:12:57;100862.35;;;16.93;78.22
81641;BME280;71053;50.722;-1.944;2023-07-22T06:15:22;100858.09;;;16.95;77.67
81641;BME280;71053;50.722;-1.944;2023-07-22T06:17:47;100855.29;;;16.94;78.06
81641;BME280;71053;50.722;-1.944;2023-07-22T06:20:12;100852.94;;;16.87;78.54
81641;BME280;71053;50.722;-1.944;2023-07-22T06:22:37;100852.38;;;17.00;77.39
81641;BME280;71053;50.722;-1.944;2023-07-22T06:25:03;100852.66;;;17.00;77.97
81641;BME280;71053;50.722;-1.944;2023-07-22T06:27:28;100856.83;;;17.04;78.00
81641;BME280;71053;50.722;-1.944;2023-07-22T06:29:53;100853.75;;;16.94;77.90
81641;BME280;71053;50.722;-1.944;2023-07-22T06:32:18;100851.53;;;16.87;77.92
81641;BME280;71053;50.722;-1.944;2023-07-22T06:34:43;100854.21;;;16.97;78.17
81641;BME280;71053;50.722;-1.944;2023-07-22T06:37:08;100855.61;;;16.85;78.44
81641;BME280;71053;50.722;-1.944;2023-07-22T06:39:34;100852.40;;;16.96;78.02
81641;BME280;71053;50.722;-1.944;2023-07-22T06:41:59;100853.32;;;16.92;78.32
81641;BME280;71053;50.722;-1.944;2023-07-22T06:44:24;100851.56;;;16.93;78.16
81641;BME280;71053;50.722;-1.944;2023-07-22T06:46:49;100853.61;;;17.12;77.35
81641;BME280;71053;50.722;-1.944;2023-07-22T06:49:15;100855.02;;;17.01;77.21
81641;BME280;71053;50.722;-1.944;2023-07-22T06:51:40;100846.74;;;17.04;76.64
81641;BME280;71053;50.722;-1.944;2023-07-22T06:54:06;100846.22;;;17.17;75.46
81641;BME280;71053;50.722;-1.944;2023-07-22T06:56:30;100845.66;;;17.22;76.02
81641;BME280;71053;50.722;-1.944;2023-07-22T06:58:56;100840.56;;;17.15;76.17
81641;BME280;71053;50.722;-1.944;2023-07-22T07:01:20;100841.95;;;17.13;76.28
81641;BME280;71053;50.722;-1.944;2023-07-22T07:03:46;100839.30;;;17.11;76.33
81641;BME280;71053;50.722;-1.944;2023-07-22T07:06:11;100847.15;;;17.34;75.42
81641;BME280;71053;50.722;-1.944;2023-07-22T07:08:36;100844.13;;;17.26;75.71
81641;BME280;71053;50.722;-1.944;2023-07-22T07:11:01;100845.37;;;17.24;75.92
81641;BME280;71053;50.722;-1.944;2023-07-22T07:13:26;100840.07;;;17.26;75.30
81641;BME280;71053;50.722;-1.944;2023-07-22T07:15:52;100838.21;;;17.16;75.12
81641;BME280;71053;50.722;-1.944;2023-07-22T07:18:17;100838.34;;;17.27;75.09
81641;BME280;71053;50.722;-1.944;2023-07-22T07:20:42;100834.01;;;17.26;74.93
81641;BME280;71053;50.722;-1.944;2023-07-22T07:23:07;100833.35;;;17.22;75.13
81641;BME280;71053;50.722;-1.944;2023-07-22T07:25:32;100833.44;;;17.27;74.51
81641;BME280;71053;50.722;-1.944;2023-07-22T07:27:57;100827.73;;;17.04;75.32
81641;BME280;71053;50.722;-1.944;2023-07-22T07:30:23;100831.98;;;16.97;75.34
81641;BME280;71053;50.722;-1.944;2023-07-22T07:32:48;100834.26;;;17.23;74.31
81641;BME280;71053;50.722;-1.944;2023-07-22T07:35:13;100830.36;;;17.34;73.74
81641;BME280;71053;50.722;-1.944;2023-07-22T07:37:38;100828.10;;;17.35;73.18
81641;BME280;71053;50.722;-1.944;2023-07-22T07:40:04;100830.10;;;17.35;73.06
81641;BME280;71053;50.722;-1.944;2023-07-22T07:42:29;100824.44;;;17.36;74.09
81641;BME280;71053;50.722;-1.944;2023-07-22T07:44:54;100821.52;;;17.41;74.27
81641;BME280;71053;50.722;-1.944;2023-07-22T07:47:19;100823.13;;;17.36;73.38
81641;BME280;71053;50.722;-1.944;2023-07-22T07:49:45;100818.86;;;17.63;72.56
81641;BME280;71053;50.722;-1.944;2023-07-22T07:52:10;100819.54;;;17.56;72.34
81641;BME280;71053;50.722;-1.944;2023-07-22T07:54:35;100818.56;;;17.46;73.32
81641;BME280;71053;50.722;-1.944;2023-07-22T07:57:00;100818.79;;;17.64;72.17
81641;BME280;71053;50.722;-1.944;2023-07-22T07:59:25;100812.15;;;17.73;72.20
81641;BME280;71053;50.722;-1.944;2023-07-22T08:01:50;100821.16;;;17.90;72.22
81641;BME280;71053;50.722;-1.944;2023-07-22T08:04:16;100813.28;;;18.13;71.27
81641;BME280;71053;50.722;-1.944;2023-07-22T08:06:41;100816.15;;;18.12;71.29
81641;BME280;71053;50.722;-1.944;2023-07-22T08:09:06;100813.77;;;18.15;71.87
81641;BME280;71053;50.722;-1.944;2023-07-22T08:11:32;100804.01;;;18.32;71.74
81641;BME280;71053;50.722;-1.944;2023-07-22T08:13:57;100810.74;;;18.22;71.24
81641;BME280;71053;50.722;-1.944;2023-07-22T08:16:22;100811.75;;;18.34;71.10
81641;BME280;71053;50.722;-1.944;2023-07-22T08:18:47;100814.89;;;18.26;70.96
81641;BME280;71053;50.722;-1.944;2023-07-22T08:21:12;100812.31;;;18.38;71.14
81641;BME280;71053;50.722;-1.944;2023-07-22T08:23:37;100801.52;;;18.26;71.54
81641;BME280;71053;50.722;-1.944;2023-07-22T08:26:02;100811.94;;;18.08;71.24
81641;BME280;71053;50.722;-1.944;2023-07-22T08:28:28;100802.25;;;18.25;71.04
81641;BME280;71053;50.722;-1.944;2023-07-22T08:30:55;100808.01;;;18.27;71.01
81641;BME280;71053;50.722;-1.944;2023-07-22T08:33:18;100808.18;;;17.94;72.24
81641;BME280;71053;50.722;-1.944;2023-07-22T08:35:43;100808.81;;;17.90;73.30
81641;BME280;71053;50.722;-1.944;2023-07-22T08:38:09;100807.58;;;17.94;73.50
81641;BME280;71053;50.722;-1.944;2023-07-22T08:40:34;100794.84;;;18.05;73.39
81641;BME280;71053;50.722;-1.944;2023-07-22T08:42:59;100801.09;;;18.07;71.82
81641;BME280;71053;50.722;-1.944;2023-07-22T08:45:28;100797.35;;;17.95;72.04
81641;BME280;71053;50.722;-1.944;2023-07-22T08:47:51;100800.48;;;17.79;73.04
81641;BME280;71053;50.722;-1.944;2023-07-22T08:50:20;100794.40;;;17.94;72.74
81641;BME280;71053;50.722;-1.944;2023-07-22T08:52:40;100795.29;;;17.56;73.21
81641;BME280;71053;50.722;-1.944;2023-07-22T08:55:06;100791.67;;;17.79;72.86
81641;BME280;71053;50.722;-1.944;2023-07-22T08:57:31;100794.12;;;17.72;73.06
81641;BME280;71053;50.722;-1.944;2023-07-22T08:59:57;100789.62;;;17.61;73.57
81641;BME280;71053;50.722;-1.944;2023-07-22T09:02:21;100786.94;;;17.64;73.40
81641;BME280;71053;50.722;-1.944;2023-07-22T09:04:46;100794.21;;;17.71;73.59
81641;BME280;71053;50.722;-1.944;2023-07-22T09:07:12;100789.02;;;17.65;73.69
81641;BME280;71053;50.722;-1.944;2023-07-22T09:09:37;100788.72;;;17.78;73.74
81641;BME280;71053;50.722;-1.944;2023-07-22T09:12:02;100783.70;;;17.43;75.19
81641;BME280;71053;50.722;-1.944;2023-07-22T09:14:28;100782.00;;;17.58;75.16
81641;BME280;71053;50.722;-1.944;2023-07-22T09:16:52;100780.34;;;17.66;74.46
81641;BME280;71053;50.722;-1.944;2023-07-22T09:19:17;100777.03;;;17.49;74.77
81641;BME280;71053;50.722;-1.944;2023-07-22T09:21:42;100775.91;;;17.40;76.03
81641;BME280;71053;50.722;-1.944;2023-07-22T09:24:19;100772.31;;;17.47;76.34
81641;BME280;71053;50.722;-1.944;2023-07-22T09:26:33;100771.13;;;17.26;78.18
81641;BME280;71053;50.722;-1.944;2023-07-22T09:28:58;100774.45;;;17.36;78.33
81641;BME280;71053;50.722;-1.944;2023-07-22T09:31:25;100771.25;;;17.25;79.10
81641;BME280;71053;50.722;-1.944;2023-07-22T09:33:49;100776.44;;;17.13;78.46
81641;BME280;71053;50.722;-1.944;2023-07-22T09:36:14;100776.60;;;17.23;78.45
81641;BME280;71053;50.722;-1.944;2023-07-22T09:38:39;100773.14;;;17.22;77.98
81641;BME280;71053;50.722;-1.944;2023-07-22T09:41:04;100770.96;;;17.16;76.66
81641;BME280;71053;50.722;-1.944;2023-07-22T09:43:30;100768.67;;;17.31;76.07
81641;BME280;71053;50.722;-1.944;2023-07-22T09:45:55;100773.09;;;17.34;75.39
81641;BME280;71053;50.722;-1.944;2023-07-22T09:48:21;100775.66;;;17.20;75.46
81641;BME280;71053;50.722;-1.944;2023-07-22T09:50:45;100775.81;;;17.36;75.07
81641;BME280;71053;50.722;-1.944;2023-07-22T09:53:15;100773.55;;;17.31;74.90
81641;BME280;71053;50.722;-1.944;2023-07-22T09:55:36;100772.47;;;17.36;75.98
81641;BME280;71053;50.722;-1.944;2023-07-22T09:58:03;100771.38;;;17.08;76.91
81641;BME280;71053;50.722;-1.944;2023-07-22T10:00:30;100774.84;;;17.12;77.05
81641;BME280;71053;50.722;-1.944;2023-07-22T10:02:53;100775.08;;;16.93;78.40
81641;BME280;71053;50.722;-1.944;2023-07-22T10:05:18;100775.87;;;17.06;78.77
81641;BME280;71053;50.722;-1.944;2023-07-22T10:07:44;100770.42;;;17.23;77.92
81641;BME280;71053;50.722;-1.944;2023-07-22T10:10:09;100769.58;;;17.09;79.35
81641;BME280;71053;50.722;-1.944;2023-07-22T10:12:33;100775.90;;;17.08;79.84
81641;BME280;71053;50.722;-1.944;2023-07-22T10:14:58;100771.00;;;17.19;79.15
81641;BME280;71053;50.722;-1.944;2023-07-22T10:17:24;100772.46;;;16.99;79.66
81641;BME280;71053;50.722;-1.944;2023-07-22T10:19:51;100769.93;;;17.19;80.04
81641;BME280;71053;50.722;-1.944;2023-07-22T10:22:14;100761.96;;;17.25;79.64
81641;BME280;71053;50.722;-1.944;2023-07-22T10:24:41;100761.44;;;17.16;81.03
81641;BME280;71053;50.722;-1.944;2023-07-22T10:27:07;100757.33;;;17.50;78.60
81641;BME280;71053;50.722;-1.944;2023-07-22T10:29:33;100753.78;;;17.49;79.06
81641;BME280;71053;50.722;-1.944;2023-07-22T10:31:56;100753.85;;;17.49;79.53
81641;BME280;71053;50.722;-1.944;2023-07-22T10:34:22;100748.74;;;17.53;78.75
81641;BME280;71053;50.722;-1.944;2023-07-22T10:36:47;100752.25;;;17.38;79.14
81641;BME280;71053;50.722;-1.944;2023-07-22T10:41:38;100744.89;;;17.26;78.50
81641;BME280;71053;50.722;-1.944;2023-07-22T10:44:03;100746.43;;;17.37;77.18
81641;BME280;71053;50.722;-1.944;2023-07-22T10:46:32;100744.67;;;17.32;78.17
81641;BME280;71053;50.722;-1.944;2023-07-22T10:51:18;100744.88;;;17.37;78.75
81641;BME280;71053;50.722;-1.944;2023-07-22T10:53:46;100747.37;;;17.55;76.16
81641;BME280;71053;50.722;-1.944;2023-07-22T10:56:14;100731.81;;;17.49;77.56
81641;BME280;71053;50.722;-1.944;2023-07-22T11:03:26;100739.35;;;17.38;78.69
81641;BME280;71053;50.722;-1.944;2023-07-22T11:05:53;100734.17;;;17.28;79.03
81641;BME280;71053;50.722;-1.944;2023-07-22T11:08:17;100734.07;;;17.43;79.10
81641;BME280;71053;50.722;-1.944;2023-07-22T11:10:53;100727.98;;;17.63;78.46
81641;BME280;71053;50.722;-1.944;2023-07-22T11:13:10;100717.31;;;17.32;78.48
81641;BME280;71053;50.722;-1.944;2023-07-22T11:15:34;100721.71;;;17.47;78.33
81641;BME280;71053;50.722;-1.944;2023-07-22T11:17:59;100727.72;;;17.35;78.90
81641;BME280;71053;50.722;-1.944;2023-07-22T11:20:24;100720.28;;;17.21;77.43
81641;BME280;71053;50.722;-1.944;2023-07-22T11:22:50;100713.50;;;17.24;77.90
81641;BME280;71053;50.722;-1.944;2023-07-22T11:25:18;100703.86;;;17.32;78.71
81641;BME280;71053;50.722;-1.944;2023-07-22T11:27:40;100705.55;;;17.18;79.85
81641;BME280;71053;50.722;-1.944;2023-07-22T11:30:07;100688.91;;;17.42;78.31
81641;BME280;71053;50.722;-1.944;2023-07-22T11:32:32;100690.22;;;17.22;78.43
81641;BME280;71053;50.722;-1.944;2023-07-22T11:34:57;100686.50;;;17.23;78.28
81641;BME280;71053;50.722;-1.944;2023-07-22T11:37:22;100692.45;;;17.25;79.36
81641;BME280;71053;50.722;-1.944;2023-07-22T11:39:48;100682.04;;;16.98;79.24
81641;BME280;71053;50.722;-1.944;2023-07-22T11:42:14;100693.98;;;16.72;79.12
81641;BME280;71053;50.722;-1.944;2023-07-22T11:44:39;100686.82;;;16.76;80.99
81641;BME280;71053;50.722;-1.944;2023-07-22T11:47:05;100691.49;;;16.65;82.04
81641;BME280;71053;50.722;-1.944;2023-07-22T11:49:32;100682.94;;;17.00;80.75
81641;BME280;71053;50.722;-1.944;2023-07-22T11:51:57;100681.68;;;16.92;81.52
81641;BME280;71053;50.722;-1.944;2023-07-22T11:54:21;100677.09;;;16.88;83.15
81641;BME280;71053;50.722;-1.944;2023-07-22T11:56:47;100681.35;;;16.92;83.74
81641;BME280;71053;50.722;-1.944;2023-07-22T11:59:12;100680.34;;;16.87;84.58
81641;BME280;71053;50.722;-1.944;2023-07-22T12:01:37;100684.31;;;16.99;83.54
81641;BME280;71053;50.722;-1.944;2023-07-22T12:04:09;100665.63;;;17.18;82.15
81641;BME280;71053;50.722;-1.944;2023-07-22T12:06:29;100666.88;;;17.09;82.89
81641;BME280;71053;50.722;-1.944;2023-07-22T12:08:54;100667.48;;;17.24;82.49
81641;BME280;71053;50.722;-1.944;2023-07-22T12:11:22;100659.72;;;17.18;82.38
81641;BME280;71053;50.722;-1.944;2023-07-22T12:13:46;100658.57;;;16.84;83.82
81641;BME280;71053;50.722;-1.944;2023-07-22T12:16:11;100653.30;;;17.03;83.16
81641;BME280;71053;50.722;-1.944;2023-07-22T12:18:42;100656.16;;;16.94;84.89
81641;BME280;71053;50.722;-1.944;2023-07-22T12:21:03;100647.19;;;16.71;85.70
81641;BME280;71053;50.722;-1.944;2023-07-22T12:23:27;100646.28;;;16.65;87.55
81641;BME280;71053;50.722;-1.944;2023-07-22T12:25:53;100644.67;;;16.94;86.70
81641;BME280;71053;50.722;-1.944;2023-07-22T12:28:18;100642.44;;;16.85;87.05
81641;BME280;71053;50.722;-1.944;2023-07-22T12:30:43;100642.20;;;16.64;87.99
81641;BME280;71053;50.722;-1.944;2023-07-22T12:33:09;100633.21;;;16.92;87.00
81641;BME280;71053;50.722;-1.944;2023-07-22T12:35:34;100637.44;;;16.98;86.86
81641;BME280;71053;50.722;-1.944;2023-07-22T12:37:59;100635.63;;;16.65;88.32